createdAt,value
2022-08-26T00:01:46.055Z,18.47
2022-08-26T00:04:12.758Z,18.44
2022-08-26T00:06:42.607Z,18.46
2022-08-26T00:09:13.254Z,18.45
2022-08-26T00:11:42.639Z,18.44
2022-08-26T00:14:08.967Z,18.44
2022-08-26T00:16:35.359Z,18.43
2022-08-26T00:19:02.132Z,18.40
2022-08-26T00:21:28.462Z,18.41
2022-08-26T00:23:55.443Z,18.40
2022-08-26T00:26:21.851Z,18.39
2022-08-26T00:28:49.849Z,18.39
2022-08-26T00:31:16.418Z,18.38
2022-08-26T00:33:43.024Z,18.37
2022-08-26T00:36:20.127Z,18.31
2022-08-26T00:38:47.069Z,18.30
2022-08-26T00:41:13.696Z,18.28
2022-08-26T00:43:47.638Z,18.26
2022-08-26T00:46:16.946Z,18.22
2022-08-26T00:48:44.950Z,18.18
2022-08-26T00:51:23.041Z,18.17
2022-08-26T00:53:51.779Z,18.16
2022-08-26T00:56:22.233Z,18.14
2022-08-26T00:58:49.369Z,18.14
2022-08-26T01:01:17.038Z,18.10
2022-08-26T01:03:44.420Z,18.10
2022-08-26T01:06:12.990Z,18.10
2022-08-26T01:08:39.828Z,18.05
2022-08-26T01:11:06.422Z,18.02
2022-08-26T01:13:36.318Z,18.00
2022-08-26T01:16:03.976Z,18.05
2022-08-26T01:18:31.468Z,18.02
2022-08-26T01:20:57.950Z,18.02
2022-08-26T01:23:28.810Z,18.01
2022-08-26T01:25:57.837Z,17.98
2022-08-26T01:28:29.231Z,18.01
2022-08-26T01:30:56.732Z,18.00
2022-08-26T01:33:29.511Z,17.99
2022-08-26T01:35:55.879Z,17.94
2022-08-26T01:38:23.645Z,17.94
2022-08-26T01:40:50.174Z,17.92
2022-08-26T01:43:18.704Z,17.88
2022-08-26T01:45:48.307Z,17.83
2022-08-26T01:48:17.554Z,17.80
2022-08-26T01:50:44.953Z,17.79
2022-08-26T01:53:12.604Z,17.79
2022-08-26T01:55:40.869Z,17.75
2022-08-26T01:58:09.815Z,17.73
2022-08-26T02:00:36.907Z,17.70
2022-08-26T02:03:16.629Z,17.66
2022-08-26T02:05:51.298Z,17.69
2022-08-26T02:08:20.597Z,17.70
2022-08-26T02:10:51.424Z,17.69
2022-08-26T02:13:21.590Z,17.65
2022-08-26T02:15:49.297Z,17.66
2022-08-26T02:18:16.028Z,17.64
2022-08-26T02:20:42.915Z,17.65
2022-08-26T02:23:09.636Z,17.65
2022-08-26T02:26:08.641Z,17.67
2022-08-26T02:28:53.157Z,17.65
2022-08-26T02:31:19.842Z,17.64
2022-08-26T02:33:46.322Z,17.59
2022-08-26T02:36:13.520Z,17.56
2022-08-26T02:38:43.080Z,17.52
2022-08-26T02:41:10.154Z,17.52
2022-08-26T02:43:36.768Z,17.51
2022-08-26T02:46:03.543Z,17.47
2022-08-26T02:48:30.868Z,17.45
2022-08-26T02:50:58.868Z,17.42
2022-08-26T02:53:25.654Z,17.38
2022-08-26T02:55:52.131Z,17.38
2022-08-26T02:58:18.525Z,17.40
2022-08-26T03:00:52.592Z,17.39
2022-08-26T03:03:19.372Z,17.42
2022-08-26T03:05:48.779Z,17.39
2022-08-26T03:08:15.553Z,17.37
2022-08-26T03:10:41.875Z,17.35
2022-08-26T03:13:08.386Z,17.30
2022-08-26T03:15:34.874Z,17.29
2022-08-26T03:18:01.205Z,17.24
2022-08-26T03:20:27.592Z,17.21
2022-08-26T03:22:56.229Z,17.19
2022-08-26T03:25:23.073Z,17.19
2022-08-26T03:27:50.156Z,17.14
2022-08-26T03:30:34.962Z,17.13
2022-08-26T03:33:01.848Z,17.11
2022-08-26T03:35:28.728Z,17.07
2022-08-26T03:37:55.431Z,17.02
2022-08-26T03:40:22.388Z,17.00
2022-08-26T03:42:49.288Z,16.99
2022-08-26T03:45:17.155Z,16.99
2022-08-26T03:47:44.502Z,16.98
2022-08-26T03:50:12.136Z,16.95
2022-08-26T03:52:43.561Z,16.92
2022-08-26T03:55:10.670Z,16.89
2022-08-26T03:57:36.989Z,16.85
2022-08-26T04:00:04.727Z,16.86
2022-08-26T04:02:31.122Z,16.84
2022-08-26T04:04:57.460Z,16.84
2022-08-26T04:07:26.005Z,16.83
2022-08-26T04:09:56.203Z,16.85
2022-08-26T04:12:23.018Z,16.87
2022-08-26T04:14:51.511Z,16.86
2022-08-26T04:17:20.197Z,16.86
2022-08-26T04:19:52.519Z,16.91
2022-08-26T04:22:25.001Z,16.91
2022-08-26T04:24:51.649Z,16.91
2022-08-26T04:27:17.978Z,16.93
2022-08-26T04:29:46.203Z,16.96
2022-08-26T04:32:14.331Z,17.02
2022-08-26T04:34:40.689Z,17.10
2022-08-26T04:37:07.293Z,17.19
2022-08-26T04:39:33.654Z,17.30
2022-08-26T04:42:00.092Z,17.43
2022-08-26T04:44:29.044Z,17.54
2022-08-26T04:46:55.840Z,17.65
2022-08-26T04:49:22.680Z,17.73
2022-08-26T04:51:49.275Z,17.79
2022-08-26T04:54:16.437Z,17.89
2022-08-26T04:56:44.178Z,17.97
2022-08-26T04:59:16.596Z,18.04
2022-08-26T05:01:45.515Z,18.10
2022-08-26T05:04:12.860Z,18.16
2022-08-26T05:06:42.701Z,18.21
2022-08-26T05:09:09.054Z,18.30
2022-08-26T05:11:36.063Z,18.35
2022-08-26T05:14:02.588Z,18.36
2022-08-26T05:16:30.289Z,18.41
2022-08-26T05:18:57.435Z,18.49
2022-08-26T05:21:25.548Z,18.52
2022-08-26T05:23:54.904Z,18.55
2022-08-26T05:26:23.317Z,18.59
2022-08-26T05:28:49.861Z,18.63
2022-08-26T05:31:18.302Z,18.65
2022-08-26T05:33:45.375Z,18.72
2022-08-26T05:36:13.638Z,18.80
2022-08-26T05:38:39.937Z,18.89
2022-08-26T05:41:14.116Z,18.97
2022-08-26T05:43:43.322Z,19.01
2022-08-26T05:46:10.178Z,19.03
2022-08-26T05:48:36.599Z,19.05
2022-08-26T05:51:04.899Z,19.08
2022-08-26T05:53:32.204Z,19.13
2022-08-26T05:55:58.902Z,19.19
2022-08-26T05:58:27.111Z,19.21
2022-08-26T06:00:57.671Z,19.24
2022-08-26T06:03:24.280Z,19.21
2022-08-26T06:05:50.589Z,19.29
2022-08-26T06:08:19.204Z,19.29
2022-08-26T06:10:53.807Z,19.31
2022-08-26T06:13:21.623Z,19.39
2022-08-26T06:15:50.098Z,19.53
2022-08-26T06:18:18.018Z,19.57
2022-08-26T06:20:57.670Z,19.67
2022-08-26T06:23:43.680Z,19.68
2022-08-26T06:26:11.085Z,19.79
2022-08-26T06:28:37.689Z,19.78
2022-08-26T06:31:04.356Z,19.80
2022-08-26T06:33:31.243Z,19.79
2022-08-26T06:35:57.602Z,19.84
2022-08-26T06:38:25.376Z,19.89
2022-08-26T06:40:54.716Z,20.02
2022-08-26T06:43:22.647Z,20.03
2022-08-26T06:45:50.085Z,20.09
2022-08-26T06:48:18.126Z,20.13
2022-08-26T06:50:45.223Z,20.19
2022-08-26T06:53:13.377Z,20.18
2022-08-26T06:55:41.582Z,20.26
2022-08-26T06:58:09.466Z,20.41
2022-08-26T07:00:36.650Z,20.54
2022-08-26T07:03:06.010Z,20.63
2022-08-26T07:05:35.711Z,20.83
2022-08-26T07:08:02.313Z,20.77
2022-08-26T07:10:29.512Z,20.86
2022-08-26T07:12:55.822Z,21.06
2022-08-26T07:15:27.102Z,21.26
2022-08-26T07:17:57.425Z,21.42
2022-08-26T07:20:23.709Z,21.59
2022-08-26T07:22:51.391Z,21.51
2022-08-26T07:25:17.936Z,21.66
2022-08-26T07:27:45.705Z,21.70
2022-08-26T07:30:20.247Z,21.76
2022-08-26T07:32:46.558Z,21.72
2022-08-26T07:35:14.007Z,21.83
2022-08-26T07:37:40.563Z,21.91
2022-08-26T07:40:07.405Z,22.03
2022-08-26T07:42:35.785Z,22.16
2022-08-26T07:45:02.116Z,22.22
2022-08-26T07:47:28.455Z,22.39
2022-08-26T07:49:55.511Z,22.51
2022-08-26T07:52:26.207Z,22.66
2022-08-26T07:54:53.181Z,22.66
2022-08-26T07:57:19.496Z,22.73
2022-08-26T07:59:47.297Z,22.86
2022-08-26T08:02:13.617Z,22.87
2022-08-26T08:04:40.030Z,22.96
2022-08-26T08:07:07.534Z,23.11
2022-08-26T08:09:37.993Z,23.19
2022-08-26T08:12:07.221Z,23.11
2022-08-26T08:14:36.397Z,23.15
2022-08-26T08:17:03.806Z,23.25
2022-08-26T08:19:38.958Z,23.23
2022-08-26T08:22:17.017Z,22.95
2022-08-26T08:24:44.384Z,22.89
2022-08-26T08:27:10.731Z,23.03
2022-08-26T08:29:37.158Z,23.14
2022-08-26T08:32:04.896Z,23.13
2022-08-26T08:34:31.408Z,23.14
2022-08-26T08:36:57.805Z,23.28
2022-08-26T08:39:25.017Z,23.42
2022-08-26T08:42:13.755Z,23.45
2022-08-26T08:44:42.121Z,23.47
2022-08-26T08:47:25.702Z,23.47
2022-08-26T08:49:54.478Z,23.43
2022-08-26T08:52:28.992Z,23.72
2022-08-26T08:54:55.917Z,24.00
2022-08-26T08:57:27.815Z,24.20
2022-08-26T08:59:59.788Z,24.21
2022-08-26T09:02:30.503Z,24.22
2022-08-26T09:05:07.183Z,24.49
2022-08-26T09:07:37.711Z,24.77
2022-08-26T09:10:04.090Z,24.89
2022-08-26T09:12:32.734Z,25.04
2022-08-26T09:15:05.152Z,25.06
2022-08-26T09:17:43.510Z,25.25
2022-08-26T09:20:35.579Z,25.39
2022-08-26T09:23:03.408Z,25.55
2022-08-26T09:25:29.892Z,25.75
2022-08-26T09:27:57.647Z,25.72
2022-08-26T09:30:34.751Z,25.53
2022-08-26T09:33:10.237Z,25.56
2022-08-26T09:35:47.277Z,25.71
2022-08-26T09:38:28.019Z,25.64
2022-08-26T09:40:59.168Z,25.62
2022-08-26T09:43:28.364Z,25.56
2022-08-26T09:46:09.317Z,25.76
2022-08-26T09:48:40.556Z,26.03
2022-08-26T09:51:26.492Z,25.91
2022-08-26T09:53:57.097Z,25.88
2022-08-26T09:56:23.378Z,25.99
2022-08-26T09:58:50.387Z,26.23
2022-08-26T10:01:23.173Z,26.46
2022-08-26T10:03:50.564Z,26.66
2022-08-26T10:06:16.908Z,26.81
2022-08-26T10:08:47.655Z,26.83
2022-08-26T10:11:33.093Z,26.71
2022-08-26T10:14:03.047Z,26.59
2022-08-26T10:16:29.661Z,26.54
2022-08-26T10:19:01.891Z,26.63
2022-08-26T10:21:57.551Z,26.75
2022-08-26T10:24:28.318Z,27.11
2022-08-26T10:27:33.932Z,27.20
2022-08-26T10:30:06.631Z,27.60
2022-08-26T10:32:37.339Z,27.53
2022-08-26T10:35:09.821Z,27.67
2022-08-26T10:37:38.704Z,27.88
2022-08-26T10:40:05.451Z,27.97
2022-08-26T10:42:35.363Z,28.05
2022-08-26T10:45:25.290Z,28.06
2022-08-26T10:47:56.264Z,28.00
2022-08-26T10:50:26.255Z,28.09
2022-08-26T10:53:00.159Z,28.35
2022-08-26T10:55:29.546Z,28.52
2022-08-26T10:58:05.035Z,28.53
2022-08-26T11:00:53.972Z,28.64
2022-08-26T11:03:38.966Z,28.74
2022-08-26T11:06:24.095Z,29.54
2022-08-26T11:08:52.638Z,30.81
2022-08-26T11:11:38.887Z,31.32
2022-08-26T11:14:08.324Z,31.83
2022-08-26T11:16:45.381Z,31.88
2022-08-26T11:19:50.521Z,30.62
2022-08-26T11:22:29.118Z,29.73
2022-08-26T11:24:55.600Z,30.20
2022-08-26T11:27:25.919Z,29.55
2022-08-26T11:30:00.507Z,29.38
2022-08-26T11:32:45.848Z,29.79
2022-08-26T11:35:17.808Z,30.69
2022-08-26T11:37:50.339Z,31.31
2022-08-26T11:40:25.134Z,31.41
2022-08-26T11:43:00.625Z,31.53
2022-08-26T11:45:40.578Z,31.13
2022-08-26T11:48:16.413Z,31.81
2022-08-26T11:50:52.803Z,32.19
2022-08-26T11:53:19.298Z,32.00
2022-08-26T11:55:45.685Z,31.90
2022-08-26T11:58:14.781Z,32.30
2022-08-26T12:00:45.771Z,32.72
2022-08-26T12:03:19.346Z,32.83
2022-08-26T12:05:47.000Z,32.94
2022-08-26T12:08:16.581Z,33.12
2022-08-26T12:10:42.939Z,33.42
2022-08-26T12:13:17.734Z,33.87
2022-08-26T12:15:51.462Z,34.21
2022-08-26T12:18:28.805Z,33.90
2022-08-26T12:20:58.107Z,34.13
2022-08-26T12:23:27.005Z,34.51
2022-08-26T12:26:02.066Z,35.01
2022-08-26T12:28:29.938Z,35.33
2022-08-26T12:31:00.924Z,35.50
2022-08-26T12:33:27.915Z,35.52
2022-08-26T12:35:56.371Z,35.69
2022-08-26T12:38:23.916Z,35.66
2022-08-26T12:40:50.650Z,34.81
2022-08-26T12:43:36.723Z,34.30
2022-08-26T12:46:04.650Z,33.41
2022-08-26T12:48:37.917Z,33.07
2022-08-26T12:51:07.421Z,33.02
2022-08-26T12:53:35.193Z,32.90
2022-08-26T12:56:17.501Z,33.01
2022-08-26T12:58:44.186Z,32.27
2022-08-26T13:01:10.626Z,31.79
2022-08-26T13:03:46.110Z,30.66
2022-08-26T13:06:16.427Z,29.63
2022-08-26T13:08:46.898Z,29.04
2022-08-26T13:11:20.372Z,28.41
2022-08-26T13:13:52.082Z,28.15
2022-08-26T13:16:20.805Z,27.96
2022-08-26T13:18:47.954Z,27.63
2022-08-26T13:21:17.459Z,27.52
2022-08-26T13:23:44.616Z,28.32
2022-08-26T13:26:11.375Z,28.80
2022-08-26T13:28:37.974Z,28.38
2022-08-26T13:31:04.966Z,27.88
2022-08-26T13:33:32.471Z,27.46
2022-08-26T13:35:59.515Z,27.03
2022-08-26T13:38:33.820Z,26.64
2022-08-26T13:41:00.828Z,26.31
2022-08-26T13:43:28.014Z,26.10
2022-08-26T13:45:54.805Z,26.07
2022-08-26T13:48:23.313Z,26.02
2022-08-26T13:50:50.099Z,25.95
2022-08-26T13:53:17.199Z,25.82
2022-08-26T13:55:43.537Z,25.72
2022-08-26T13:58:10.705Z,25.72
2022-08-26T14:00:38.073Z,25.63
2022-08-26T14:03:04.836Z,25.49
2022-08-26T14:05:31.275Z,25.50
2022-08-26T14:07:57.792Z,25.44
2022-08-26T14:10:24.850Z,25.38
2022-08-26T14:12:51.677Z,25.37
2022-08-26T14:15:18.630Z,25.39
2022-08-26T14:17:47.020Z,25.33
2022-08-26T14:20:15.743Z,25.08
2022-08-26T14:22:57.386Z,24.88
2022-08-26T14:25:30.177Z,25.03
2022-08-26T14:27:59.522Z,25.09
2022-08-26T14:30:25.830Z,25.13
2022-08-26T14:32:53.604Z,25.14
2022-08-26T14:35:21.277Z,25.10
2022-08-26T14:37:48.618Z,25.42
2022-08-26T14:40:18.517Z,26.06
2022-08-26T14:42:52.830Z,26.33
2022-08-26T14:45:22.515Z,26.44
2022-08-26T14:47:49.718Z,26.27
2022-08-26T14:50:18.614Z,26.07
2022-08-26T14:53:03.557Z,25.85
2022-08-26T14:55:32.342Z,25.61
2022-08-26T14:57:58.729Z,25.22
2022-08-26T15:00:25.137Z,25.16
2022-08-26T15:02:51.901Z,24.98
2022-08-26T15:05:18.603Z,24.87
2022-08-26T15:07:45.010Z,24.78
2022-08-26T15:10:13.671Z,24.62
2022-08-26T15:12:40.770Z,24.62
2022-08-26T15:15:07.982Z,24.52
2022-08-26T15:17:34.592Z,24.55
2022-08-26T15:20:01.141Z,24.53
2022-08-26T15:22:29.403Z,24.48
2022-08-26T15:24:57.100Z,24.40
2022-08-26T15:27:23.475Z,24.48
2022-08-26T15:29:49.960Z,24.51
2022-08-26T15:32:16.398Z,24.63
2022-08-26T15:34:42.742Z,24.62
2022-08-26T15:37:09.646Z,24.62
2022-08-26T15:39:36.067Z,24.46
2022-08-26T15:42:02.484Z,24.30
2022-08-26T15:44:28.971Z,24.30
2022-08-26T15:46:59.081Z,24.38
2022-08-26T15:49:26.245Z,24.35
2022-08-26T15:51:52.881Z,24.72
2022-08-26T15:54:21.111Z,25.02
2022-08-26T15:56:50.645Z,24.90
2022-08-26T15:59:17.180Z,25.10
2022-08-26T16:01:43.995Z,25.11
2022-08-26T16:04:11.375Z,24.81
2022-08-26T16:06:38.639Z,24.74
2022-08-26T16:09:06.215Z,24.56
2022-08-26T16:11:33.448Z,24.28
2022-08-26T16:13:59.868Z,24.13
2022-08-26T16:16:26.972Z,24.06
2022-08-26T16:18:53.350Z,24.18
2022-08-26T16:21:21.460Z,24.30
2022-08-26T16:23:48.007Z,24.17
2022-08-26T16:26:15.854Z,24.11
2022-08-26T16:28:43.653Z,24.11
2022-08-26T16:31:10.547Z,24.07
2022-08-26T16:33:37.846Z,23.96
2022-08-26T16:36:04.763Z,23.85
2022-08-26T16:38:31.135Z,23.77
2022-08-26T16:40:58.867Z,23.60
2022-08-26T16:43:25.242Z,23.31
2022-08-26T16:45:51.713Z,23.35
2022-08-26T16:48:18.139Z,23.17
2022-08-26T16:50:44.537Z,23.13
2022-08-26T16:55:45.929Z,23.09
2022-08-26T16:58:12.380Z,23.05
2022-08-26T17:00:39.139Z,23.04
2022-08-26T17:03:05.713Z,23.00
2022-08-26T17:05:32.193Z,23.01
2022-08-26T17:07:59.532Z,22.99
2022-08-26T17:10:27.182Z,22.93
2022-08-26T17:12:54.222Z,22.91
2022-08-26T17:15:22.125Z,22.92
2022-08-26T17:17:48.453Z,22.87
2022-08-26T17:20:15.868Z,22.78
2022-08-26T17:22:43.795Z,22.71
2022-08-26T17:25:12.480Z,22.70
2022-08-26T17:27:39.523Z,22.62
2022-08-26T17:30:06.230Z,22.58
2022-08-26T17:32:32.557Z,22.52
2022-08-26T17:34:59.593Z,22.51
2022-08-26T17:37:26.042Z,22.48
2022-08-26T17:39:53.020Z,22.48
2022-08-26T17:42:19.547Z,22.44
2022-08-26T17:44:46.532Z,22.37
2022-08-26T17:47:13.059Z,22.25
2022-08-26T17:49:39.339Z,22.21
2022-08-26T17:52:09.644Z,22.24
2022-08-26T17:54:37.715Z,22.19
2022-08-26T17:57:04.821Z,22.13
2022-08-26T17:59:36.960Z,22.09
2022-08-26T18:02:03.800Z,22.05
2022-08-26T18:04:30.266Z,22.00
2022-08-26T18:06:56.981Z,22.01
2022-08-26T18:09:23.388Z,22.01
2022-08-26T18:11:49.713Z,21.97
2022-08-26T18:14:16.046Z,21.84
2022-08-26T18:16:42.383Z,21.78
2022-08-26T18:19:08.791Z,21.73
2022-08-26T18:21:36.339Z,21.69
2022-08-26T18:24:03.159Z,21.68
2022-08-26T18:26:31.211Z,21.69
2022-08-26T18:28:57.955Z,21.71
2022-08-26T18:31:24.613Z,21.74
2022-08-26T18:33:51.117Z,21.73
2022-08-26T18:36:19.452Z,21.72
2022-08-26T18:38:46.810Z,21.68
2022-08-26T18:41:13.204Z,21.65
2022-08-26T18:43:39.684Z,21.61
2022-08-26T18:46:08.375Z,21.54
2022-08-26T18:48:34.882Z,21.43
2022-08-26T18:51:01.293Z,21.36
2022-08-26T18:53:28.422Z,21.29
2022-08-26T18:55:54.884Z,21.24
2022-08-26T18:58:21.195Z,21.23
2022-08-26T19:00:47.541Z,21.24
2022-08-26T19:03:18.780Z,21.23
2022-08-26T19:05:45.763Z,21.20
2022-08-26T19:08:12.176Z,21.20
2022-08-26T19:10:39.350Z,21.22
2022-08-26T19:13:06.927Z,21.22
2022-08-26T19:15:37.091Z,21.16
2022-08-26T19:18:03.551Z,21.13
2022-08-26T19:20:29.862Z,21.11
2022-08-26T19:22:59.652Z,21.13
2022-08-26T19:25:28.980Z,21.13
2022-08-26T19:27:55.273Z,21.12
2022-08-26T19:30:21.658Z,21.03
2022-08-26T19:32:47.974Z,21.02
2022-08-26T19:35:14.890Z,21.01
2022-08-26T19:37:41.506Z,21.02
2022-08-26T19:40:08.304Z,21.02
2022-08-26T19:42:34.713Z,20.96
2022-08-26T19:45:24.325Z,20.90
2022-08-26T19:47:51.766Z,20.80
2022-08-26T19:50:18.125Z,20.74
2022-08-26T19:52:44.464Z,20.71
2022-08-26T19:55:17.146Z,20.75
2022-08-26T19:57:43.490Z,20.78
2022-08-26T20:00:12.224Z,20.71
2022-08-26T20:02:39.485Z,20.65
2022-08-26T20:05:06.735Z,20.67
2022-08-26T20:07:33.213Z,20.68
2022-08-26T20:09:59.755Z,20.68
2022-08-26T20:12:27.428Z,20.68
2022-08-26T20:14:54.165Z,20.63
2022-08-26T20:17:20.953Z,20.59
2022-08-26T20:20:06.052Z,20.50
2022-08-26T20:22:41.058Z,20.45
2022-08-26T20:25:07.700Z,20.39
2022-08-26T20:27:38.325Z,20.37
2022-08-26T20:30:05.777Z,20.36
2022-08-26T20:32:35.577Z,20.31
2022-08-26T20:35:02.308Z,20.24
2022-08-26T20:37:29.253Z,20.18
2022-08-26T20:39:55.919Z,20.15
2022-08-26T20:42:22.313Z,20.14
2022-08-26T20:44:54.651Z,20.11
2022-08-26T20:47:21.659Z,20.09
2022-08-26T20:49:47.991Z,20.07
2022-08-26T20:52:18.608Z,20.05
2022-08-26T20:54:44.963Z,20.06
2022-08-26T20:57:11.609Z,20.04
2022-08-26T20:59:38.184Z,19.96
2022-08-26T21:02:04.555Z,19.91
2022-08-26T21:04:30.950Z,19.89
2022-08-26T21:06:58.285Z,19.90
2022-08-26T21:09:25.705Z,19.91
2022-08-26T21:11:52.625Z,19.92
2022-08-26T21:14:20.450Z,19.92
2022-08-26T21:16:47.344Z,19.90
2022-08-26T21:19:15.267Z,19.91
2022-08-26T21:21:41.881Z,19.94
2022-08-26T21:24:08.329Z,19.97
2022-08-26T21:26:34.740Z,20.02
2022-08-26T21:29:01.446Z,20.05
2022-08-26T21:31:29.681Z,20.05
2022-08-26T21:33:56.105Z,20.06
2022-08-26T21:36:22.530Z,20.09
2022-08-26T21:38:48.891Z,20.09
2022-08-26T21:41:18.687Z,20.13
2022-08-26T21:43:46.212Z,20.12
2022-08-26T21:46:14.566Z,20.12
2022-08-26T21:48:42.646Z,20.13
2022-08-26T21:51:10.303Z,20.15
2022-08-26T21:53:36.886Z,20.14
2022-08-26T21:56:04.370Z,20.09
2022-08-26T21:58:30.856Z,20.10
2022-08-26T22:00:57.303Z,20.10
2022-08-26T22:03:23.656Z,20.11
2022-08-26T22:05:51.265Z,20.12
2022-08-26T22:08:22.724Z,20.12
2022-08-26T22:10:55.008Z,20.15
2022-08-26T22:13:23.229Z,20.19
2022-08-26T22:15:50.072Z,20.22
2022-08-26T22:18:16.849Z,20.24
2022-08-26T22:20:43.658Z,20.29
2022-08-26T22:23:10.569Z,20.29
2022-08-26T22:25:36.958Z,20.30
2022-08-26T22:28:03.559Z,20.31
2022-08-26T22:30:29.980Z,20.34
2022-08-26T22:32:56.332Z,20.33
2022-08-26T22:35:28.222Z,20.32
2022-08-26T22:37:57.263Z,20.30
2022-08-26T22:40:24.304Z,20.32
2022-08-26T22:42:57.926Z,20.31
2022-08-26T22:45:26.348Z,20.30
2022-08-26T22:47:52.714Z,20.29
2022-08-26T22:50:19.062Z,20.25
2022-08-26T22:52:45.383Z,20.24
2022-08-26T22:55:11.780Z,20.24
2022-08-26T22:57:38.199Z,20.24
2022-08-26T23:00:05.602Z,20.25
2022-08-26T23:02:31.955Z,20.24
2022-08-26T23:04:58.303Z,20.27
2022-08-26T23:07:24.773Z,20.25
2022-08-26T23:09:51.133Z,20.25
2022-08-26T23:12:17.934Z,20.28
2022-08-26T23:14:44.316Z,20.29
2022-08-26T23:17:11.852Z,20.28
2022-08-26T23:19:38.189Z,20.28
2022-08-26T23:22:04.645Z,20.29
2022-08-26T23:24:31.096Z,20.30
2022-08-26T23:26:57.497Z,20.31
2022-08-26T23:29:23.852Z,20.30
2022-08-26T23:31:50.285Z,20.26
2022-08-26T23:34:35.475Z,20.25
2022-08-26T23:37:02.740Z,20.23
2022-08-26T23:39:32.854Z,20.21
2022-08-26T23:42:01.568Z,20.19
2022-08-26T23:44:30.429Z,20.17
2022-08-26T23:46:57.813Z,20.15
2022-08-26T23:49:24.719Z,20.16
2022-08-26T23:52:10.025Z,20.17
2022-08-26T23:54:36.870Z,20.18
2022-08-26T23:57:03.335Z,20.20
2022-08-26T23:59:29.745Z,20.20
